LEAM/LEI METAR and TAF weather

Enter ICAO airport designator
Station Type Date Time Source
LEAM METAR 2021/04/13 06:30 UTC NOAA

LEAM 130630Z 36004KT 300V040 9999 FEW030 13/10 Q1022


Station Type Date Time Source
LEAM Decoded METAR 2021/04/13 06:30 UTC NOAA

Almeria / Aeropuerto, Spain (LEAM) 36-51N 002-23W 21M
Apr 13, 2021 - 02:30 AM EDT / 2021.04.13 0630 UTC
Wind: from the N (360 degrees) at 5 MPH (4 KT) (direction variable):0
Visibility: greater than 7 mile(s):0
Sky conditions: mostly clear
Temperature: 55 F (13 C)
Dew Point: 50 F (10 C)
Relative Humidity: 81%
Pressure (altimeter): 30.18 in. Hg (1022 hPa)
ob: LEAM 130630Z 36004KT 300V040 9999 FEW030 13/10 Q1022
cycle: 6

Station Type Date Time Source
LEAM TAF 2021/04/13 03:29 UTC NOAA

TAF LEAM 130200Z 1303/1403 VRB02KT 9999 FEW040 TX25/1315Z TN05/1306Z
TEMPO 1312/1321 17010KT

Example: see airport list